Tawakoni's Hourly Summary for Monday, July 9, 2018
Hour Temp
(f)
RH
(%)
Solar Rad.
(MJ/m2)
Rainfall
(in)
Wind
(mph)
7/9/2018 12:00 AM 77 75 0 0 0
7/9/2018 1:00 AM 76 76 0 0 0
7/9/2018 2:00 AM 75 80 0 0 0
7/9/2018 3:00 AM 74 84 0 0 0
7/9/2018 4:00 AM 73 85 0 0 0
7/9/2018 5:00 AM 72 89 0 0 0
7/9/2018 6:00 AM 72 92 0 0 0
7/9/2018 7:00 AM 72 93 0.01 0 0
7/9/2018 8:00 AM 74 85 0.36 0 0
7/9/2018 9:00 AM 78 73 1.05 0 0
7/9/2018 10:00 AM 81 65 1.39 0 0
7/9/2018 11:00 AM 82 65 1.1 0 0
7/9/2018 12:00 PM 80 66 0.93 0 0
7/9/2018 1:00 PM 79 72 0.74 0 0
7/9/2018 2:00 PM 82 56 1.82 0 0
7/9/2018 3:00 PM 83 54 1.46 0 0
7/9/2018 4:00 PM 86 48 1.81 0 0
7/9/2018 5:00 PM 86 52 1.44 0 0
7/9/2018 6:00 PM 79 52 0.34 0.07 3.03
7/9/2018 7:00 PM 75 93 0.16 0.02 0.94
7/9/2018 8:00 PM 75 91 0.18 0.02 0.44
7/9/2018 9:00 PM 75 91 0.02 0 0
7/9/2018 10:00 PM 74 92 0 0.01 0
7/9/2018 11:00 PM 74 93 0 0 0
Data Summary 77 75 12.81 0.12 0.18